createdAt,value
2019-05-29T00:03:17.002Z,29.70
2019-05-29T00:08:25.234Z,29.70
2019-05-29T00:13:33.370Z,29.70
2019-05-29T00:18:42.025Z,29.70
2019-05-29T00:23:49.850Z,29.80
2019-05-29T00:28:57.493Z,29.80
2019-05-29T00:34:05.414Z,29.90
2019-05-29T00:39:14.827Z,29.90
2019-05-29T00:44:34.025Z,29.90
2019-05-29T00:49:35.029Z,29.90
2019-05-29T00:54:47.557Z,30.00
2019-05-29T00:59:54.825Z,30.00
2019-05-29T01:05:02.904Z,30.00
2019-05-29T01:10:13.036Z,30.10
2019-05-29T01:15:21.515Z,30.20
2019-05-29T01:20:29.557Z,30.30
2019-05-29T01:25:38.510Z,30.40
2019-05-29T01:30:47.058Z,30.40
2019-05-29T01:35:54.870Z,30.50
2019-05-29T01:41:03.223Z,30.50
2019-05-29T01:46:11.860Z,30.60
2019-05-29T01:51:19.960Z,30.60
2019-05-29T01:56:28.569Z,30.60
2019-05-29T02:01:37.050Z,30.70
2019-05-29T02:06:45.813Z,30.80
2019-05-29T02:11:53.788Z,30.90
2019-05-29T02:17:06.755Z,30.90
2019-05-29T02:22:15.190Z,31.10
2019-05-29T02:27:29.568Z,31.10
2019-05-29T02:32:37.165Z,31.20
2019-05-29T02:37:45.530Z,31.30
2019-05-29T02:42:58.098Z,31.40
2019-05-29T02:48:27.313Z,31.50
2019-05-29T02:53:37.318Z,31.60
2019-05-29T02:58:52.547Z,31.70
2019-05-29T03:04:00.708Z,31.80
2019-05-29T03:09:14.707Z,31.90
2019-05-29T03:14:29.678Z,31.90
2019-05-29T03:19:38.239Z,32.00
2019-05-29T03:24:48.555Z,32.00
2019-05-29T03:30:45.350Z,32.20
2019-05-29T03:35:13.069Z,32.30
2019-05-29T03:40:23.254Z,32.40
2019-05-29T03:45:37.386Z,32.50
2019-05-29T03:50:48.733Z,32.60
2019-05-29T03:56:01.984Z,32.70
2019-05-29T04:01:10.486Z,32.70
2019-05-29T04:06:18.570Z,32.80
2019-05-29T04:11:29.254Z,32.90
2019-05-29T04:16:58.113Z,33.10
2019-05-29T04:21:50.632Z,33.30
2019-05-29T04:26:59.616Z,33.50
2019-05-29T04:32:08.901Z,33.60
2019-05-29T04:37:17.460Z,33.80
2019-05-29T04:42:26.369Z,33.80
2019-05-29T04:47:35.167Z,33.80
2019-05-29T04:52:42.666Z,33.80
2019-05-29T04:57:51.095Z,33.80
2019-05-29T05:03:03.596Z,33.90
2019-05-29T05:08:11.485Z,34.00
2019-05-29T05:13:20.221Z,34.20
2019-05-29T05:18:29.671Z,34.40
2019-05-29T05:23:40.714Z,34.50
2019-05-29T05:28:46.986Z,34.60
2019-05-29T05:33:56.378Z,34.70
2019-05-29T05:39:04.883Z,34.80
2019-05-29T05:44:15.577Z,34.80
2019-05-29T05:49:23.665Z,34.80
2019-05-29T05:54:33.380Z,35.00
2019-05-29T05:59:42.120Z,35.00
2019-05-29T06:04:49.588Z,34.90
2019-05-29T06:09:57.368Z,34.90
2019-05-29T06:15:06.256Z,34.90
2019-05-29T06:20:14.177Z,35.10
2019-05-29T06:25:23.766Z,35.30
2019-05-29T06:30:33.956Z,35.50
2019-05-29T06:35:44.505Z,35.60
2019-05-29T06:40:51.919Z,35.70
2019-05-29T06:45:59.546Z,35.60
2019-05-29T06:51:08.276Z,35.50
2019-05-29T06:56:16.780Z,35.40
2019-05-29T07:01:28.551Z,35.30
2019-05-29T07:06:38.594Z,35.30
2019-05-29T07:11:47.561Z,35.40
2019-05-29T07:17:01.249Z,35.50
2019-05-29T07:22:11.318Z,35.50
2019-05-29T07:27:19.414Z,35.40
2019-05-29T07:32:31.006Z,35.30
2019-05-29T07:37:43.948Z,35.30
2019-05-29T07:42:56.275Z,35.30
2019-05-29T07:48:03.723Z,35.30
2019-05-29T07:53:13.825Z,35.50
2019-05-29T07:58:23.723Z,35.60
2019-05-29T08:03:33.418Z,35.90
2019-05-29T08:08:43.687Z,36.10
2019-05-29T08:13:52.011Z,36.30
2019-05-29T08:19:07.959Z,36.40
2019-05-29T08:24:14.906Z,36.50
2019-05-29T08:29:23.437Z,36.60
2019-05-29T08:34:34.062Z,36.60
2019-05-29T08:39:47.554Z,36.50
2019-05-29T08:44:55.660Z,36.40
2019-05-29T08:50:18.260Z,36.20
2019-05-29T08:55:18.120Z,36.10
2019-05-29T09:00:28.759Z,36.00
2019-05-29T09:05:37.367Z,36.00
2019-05-29T09:10:47.223Z,36.00
2019-05-29T09:15:54.853Z,36.00
2019-05-29T09:21:04.046Z,35.90
2019-05-29T09:26:19.040Z,35.90
2019-05-29T09:31:21.887Z,35.90
2019-05-29T09:36:30.290Z,36.00
2019-05-29T09:41:40.488Z,36.00
2019-05-29T09:46:52.420Z,36.00
2019-05-29T09:52:00.449Z,36.10
2019-05-29T09:57:08.412Z,36.10
2019-05-29T10:02:16.097Z,36.10
2019-05-29T10:07:24.208Z,36.00
2019-05-29T10:12:31.686Z,36.00
2019-05-29T10:17:39.453Z,36.00
2019-05-29T10:22:50.469Z,36.00
2019-05-29T10:27:57.891Z,36.00
2019-05-29T10:33:06.368Z,35.90
2019-05-29T10:38:13.738Z,35.90
2019-05-29T10:43:33.721Z,35.80
2019-05-29T10:48:31.567Z,35.80
2019-05-29T10:53:39.324Z,35.70
2019-05-29T10:58:53.465Z,35.60
2019-05-29T11:03:57.008Z,35.40
2019-05-29T11:09:04.448Z,35.40
2019-05-29T11:14:11.748Z,35.30
2019-05-29T11:19:19.016Z,35.30
2019-05-29T11:24:26.834Z,35.20
2019-05-29T11:29:34.088Z,35.10
2019-05-29T11:34:41.822Z,35.00
2019-05-29T11:39:50.386Z,34.90
2019-05-29T11:44:59.418Z,34.90
2019-05-29T11:50:18.690Z,34.80
2019-05-29T11:55:22.604Z,34.70
2019-05-29T12:00:30.891Z,34.70
2019-05-29T12:05:38.341Z,34.60
2019-05-29T12:10:45.662Z,34.50
2019-05-29T12:15:53.696Z,34.40
2019-05-29T12:21:02.820Z,34.40
2019-05-29T12:26:21.859Z,34.30
2019-05-29T12:31:18.871Z,34.00
2019-05-29T12:36:26.093Z,33.80
2019-05-29T12:41:33.810Z,33.70
2019-05-29T12:46:41.251Z,33.60
2019-05-29T12:51:48.977Z,33.50
2019-05-29T12:56:57.818Z,33.40
2019-05-29T13:02:05.182Z,33.30
2019-05-29T13:07:12.416Z,33.00
2019-05-29T13:12:19.632Z,32.90
2019-05-29T13:17:27.094Z,32.90
2019-05-29T13:22:34.388Z,32.80
2019-05-29T13:27:41.619Z,32.80
2019-05-29T13:32:48.969Z,32.60
2019-05-29T13:37:56.902Z,32.50
2019-05-29T13:43:11.173Z,32.30
2019-05-29T13:48:13.085Z,32.30
2019-05-29T13:53:20.682Z,32.20
2019-05-29T13:58:28.353Z,32.10
2019-05-29T14:03:35.623Z,32.10
2019-05-29T14:08:45.278Z,32.10
2019-05-29T14:13:52.854Z,32.10
2019-05-29T14:19:00.886Z,32.10
2019-05-29T14:24:26.318Z,32.10
2019-05-29T14:29:17.924Z,32.10
2019-05-29T14:34:25.334Z,32.00
2019-05-29T14:39:33.438Z,32.00
2019-05-29T14:44:41.192Z,31.90
2019-05-29T14:49:48.883Z,31.90
2019-05-29T14:54:56.137Z,31.90
2019-05-29T15:00:13.570Z,31.90
2019-05-29T15:05:14.951Z,31.90
2019-05-29T15:10:27.566Z,31.90
2019-05-29T15:15:32.592Z,31.80
2019-05-29T15:20:40.340Z,31.80
2019-05-29T15:25:47.878Z,31.70
2019-05-29T15:30:55.510Z,31.70
2019-05-29T15:36:03.867Z,31.60
2019-05-29T15:41:12.716Z,31.60
2019-05-29T15:46:21.794Z,31.60
2019-05-29T15:51:29.525Z,31.40
2019-05-29T15:56:37.213Z,31.50
2019-05-29T16:01:45.029Z,31.40
2019-05-29T16:06:54.964Z,31.40
2019-05-29T16:12:01.337Z,31.30
2019-05-29T16:17:09.006Z,31.30
2019-05-29T16:22:18.914Z,31.30
2019-05-29T16:27:30.593Z,31.30
2019-05-29T16:32:35.036Z,31.20
2019-05-29T16:37:42.256Z,31.20
2019-05-29T16:42:49.738Z,31.20
2019-05-29T16:47:57.224Z,31.20
2019-05-29T16:53:04.447Z,31.10
2019-05-29T16:58:12.984Z,31.10
2019-05-29T17:03:21.871Z,31.00
2019-05-29T17:08:30.616Z,31.00
2019-05-29T17:13:38.318Z,31.00
2019-05-29T17:18:46.482Z,31.00
2019-05-29T17:23:54.174Z,30.90
2019-05-29T17:29:01.417Z,30.90
2019-05-29T17:34:08.886Z,30.90
2019-05-29T17:39:17.000Z,30.90
2019-05-29T17:44:25.677Z,30.80
2019-05-29T17:49:34.719Z,30.70
2019-05-29T17:54:41.896Z,30.70
2019-05-29T17:59:49.071Z,30.70
2019-05-29T18:04:57.237Z,30.70
2019-05-29T18:10:05.610Z,30.70
2019-05-29T18:15:14.133Z,30.70
2019-05-29T18:20:23.664Z,30.60
2019-05-29T18:25:34.400Z,30.60
2019-05-29T18:30:43.593Z,30.60
2019-05-29T18:35:51.034Z,30.60
2019-05-29T18:40:58.649Z,30.60
2019-05-29T18:46:06.458Z,30.60
2019-05-29T18:51:14.340Z,30.60
2019-05-29T18:56:21.889Z,30.50
2019-05-29T19:01:30.049Z,30.60
2019-05-29T19:06:37.219Z,30.50
2019-05-29T19:11:44.998Z,30.50
2019-05-29T19:16:52.323Z,30.50
2019-05-29T19:22:00.266Z,30.50
2019-05-29T19:27:08.339Z,30.50
2019-05-29T19:32:16.280Z,30.40
2019-05-29T19:37:24.224Z,30.50
2019-05-29T19:42:32.380Z,30.40
2019-05-29T19:47:39.534Z,30.40
2019-05-29T19:52:46.762Z,30.40
2019-05-29T19:57:56.535Z,30.30
2019-05-29T20:03:03.372Z,30.40
2019-05-29T20:08:10.861Z,30.30
2019-05-29T20:13:19.574Z,30.30
2019-05-29T20:18:28.037Z,30.30
2019-05-29T20:23:36.787Z,30.30
2019-05-29T20:28:45.093Z,30.30
2019-05-29T20:33:52.736Z,30.30
2019-05-29T20:39:00.637Z,30.20
2019-05-29T20:44:08.411Z,30.20
2019-05-29T20:49:17.284Z,30.20
2019-05-29T20:54:24.760Z,30.10
2019-05-29T20:59:32.314Z,30.20
2019-05-29T21:04:40.680Z,30.20
2019-05-29T21:09:47.916Z,30.10
2019-05-29T21:14:55.779Z,30.20
2019-05-29T21:20:03.959Z,30.20
2019-05-29T21:25:16.333Z,30.10
2019-05-29T21:30:22.878Z,30.10
2019-05-29T21:35:31.683Z,30.20
2019-05-29T21:40:40.352Z,30.10
2019-05-29T21:45:48.167Z,30.10
2019-05-29T21:50:55.919Z,30.10
2019-05-29T21:56:03.697Z,30.10
2019-05-29T22:01:11.799Z,30.10
2019-05-29T22:06:19.857Z,30.10
2019-05-29T22:11:28.411Z,30.10
2019-05-29T22:16:36.328Z,30.10
2019-05-29T22:21:44.206Z,30.10
2019-05-29T22:26:53.062Z,30.00
2019-05-29T22:32:01.683Z,30.10
2019-05-29T22:37:55.654Z,30.10
2019-05-29T22:42:27.502Z,30.00
2019-05-29T22:47:36.820Z,30.10
2019-05-29T22:52:49.576Z,30.10
2019-05-29T22:58:04.201Z,30.10
2019-05-29T23:03:12.524Z,30.10
2019-05-29T23:08:21.352Z,30.10
2019-05-29T23:13:29.133Z,30.10
2019-05-29T23:18:38.502Z,30.10
2019-05-29T23:23:46.369Z,30.10
2019-05-29T23:28:54.736Z,30.10
2019-05-29T23:34:03.285Z,30.10
2019-05-29T23:39:11.768Z,30.10
2019-05-29T23:44:20.417Z,30.10
2019-05-29T23:49:28.136Z,30.20
2019-05-29T23:54:36.407Z,30.20
2019-05-29T23:59:44.532Z,30.30
